• Join FlightAware (Why Join?)
  • Login
  • US Flag 
08:34AM EDT


 

Airport Tracker/Info


-or-


 

Live Flight TrackerFlight Track Log ✈ CRQ101 ✈ 06-May-2013 ✈ CYMT - CYUL

Flight Track Log - Related Links

Times and Time Zones

All times are in EDT time to prevent confusion due to time zone crossing. See the CRQ101 flight status page for this flight to view local times or setup timezone preferences in your user account.

Time Position Orientation Groundspeed Altitude Reporting Facility
EDT Latitude Longitude Course Direction KTS MPH feet Rate Location/Type
09:46AM 49.2030 -74.4163 173° South  Level Estimated
09:47AM 49.1381 -74.4037 173° South  Level Estimated
09:48AM 49.0732 -74.3911 173° South  Level Estimated
09:49AM 49.0084 -74.3786 173° South  Level Estimated
09:50AM 48.9435 -74.3661 173° South  Level Estimated
09:51AM 48.8786 -74.3537 173° South  Level Estimated
09:52AM 48.8136 -74.3412 173° South  Level Estimated
09:53AM 48.7487 -74.3289 173° South  Level Estimated
09:54AM 48.6838 -74.3165 173° South  Level Estimated
09:55AM 48.6189 -74.3042 173° South  Level Estimated
09:56AM 48.5540 -74.2919 173° South  Level Estimated
09:57AM 48.4891 -74.2796 173° South  Level Estimated
09:58AM 48.4242 -74.2674 173° South  Level Estimated
09:59AM 48.3593 -74.2552 173° South  Level Estimated
10:00AM 48.2943 -74.2430 173° South  Level Estimated
10:01AM 48.2294 -74.2309 173° South  Level Estimated
10:02AM 48.1645 -74.2188 173° South  Level Estimated
10:03AM 48.0996 -74.2067 173° South  Level Estimated
10:04AM 48.0347 -74.1946 173° South  Level Estimated
10:05AM 47.9697 -74.1826 173° South  Level Estimated
10:06AM 47.9048 -74.1706 173° South  Level Estimated
10:07AM 47.8399 -74.1587 173° South  Level Estimated
10:08AM 47.7750 -74.1467 173° South  Level Estimated
10:09AM 47.7100 -74.1348 173° South  Level Estimated
10:10AM 47.6451 -74.1230 173° South  Level Estimated
10:11AM 47.5802 -74.1111 173° South  Level Estimated
10:11AM 47.4667 -74.4333 173° South 220 253 20,100  Level Montreal Center
10:12AM 47.5152 -74.0993 173° South  Level Estimated
10:12AM 47.4000 -74.4333 180° South 220 253 20,000  Level Montreal Center
10:13AM 47.4503 -74.0875 173° South  Level Estimated
10:14AM 47.3854 -74.0758 173° South  Level Estimated
10:15AM 47.3204 -74.0641 173° South  Level Estimated
10:15AM 47.2530 -74.3789 166° South  Level Estimated
10:15AM 47.2000 -74.4167 166° South 220 253 20,000  Level Montreal Center
10:16AM 47.2555 -74.0524 173° South  Level Estimated
10:16AM 47.1333 -74.4167 180° South 220 253 20,000  Level Montreal Center
10:17AM 47.1906 -74.0407 173° South  Level Estimated
10:17AM 47.0833 -74.4167 180° South 220 253 20,000  Level Montreal Center
10:18AM 47.0167 -74.3833 161° South 220 253 20,000  Level Montreal Center
10:19AM 46.9500 -74.4000 190° South 220 253 20,100  Climbing Montreal Center
10:20AM 46.9000 -74.4000 180° South 220 253 20,000  Descending Montreal Center
10:21AM 46.8333 -74.4000 180° South 220 253 20,100  Climbing Montreal Center
10:22AM 46.7667 -74.4167 190° South 220 253 20,100  Level Montreal Center
10:24AM 46.6812 -74.4009 173° South  Level FlightAware Approximate
10:25AM 46.5833 -74.4333 173° South 220 253 20,100  Level Montreal Center
10:27AM 46.4995 -74.4121 170° South  Level FlightAware Approximate
10:27AM 46.4667 -74.4333 170° South 220 253 20,100  Level Montreal Center
10:29AM 46.3833 -74.4083 168° South  Level FlightAware Approximate
10:30AM 46.2667 -74.4333 168° South 240 276 18,900  Level Montreal Center
10:31AM 46.2269 -74.3178 173° South  Level FlightAware Approximate
10:31AM 46.2000 -74.4167 170° South 270 311 17,500  Level Montreal Center
10:32AM 46.1333 -74.4000 170° South 270 311 16,000 -1,620 Descending Montreal Center
10:33AM 46.0500 -74.3667 164° South 260 299 14,300 -1,560 Descending Montreal Center
10:35AM 45.9711 -74.3205 158° South  Level FlightAware Approximate
10:35AM 45.9167 -74.3333 158° South 250 288 11,400  Level Montreal Center
10:36AM 45.9400 -74.2765 168° South  Level FlightAware Approximate
10:36AM 45.8667 -74.3000 155° Southeast 240 276 10,100  Level Montreal Center
10:37AM 45.8167 -74.2333 137° Southeast 220 253 9,000 -1,020 Descending Montreal Center
10:38AM 45.7667 -74.1833 145° Southeast 210 242 8,100 -900 Descending Montreal Center
10:40AM 45.7230 -74.1140 137° Southeast  Level FlightAware Approximate
10:40AM 45.7000 -74.0500 137° Southeast 230 265 6,300  Level Montreal Center
10:42AM 45.6210 -73.9949 152° Southeast  Level FlightAware Approximate
10:42AM 45.6500 -73.8833 152° Southeast 230 265 6,000  Level Montreal Center
10:43AM 45.6333 -73.7833 103° East 230 265 6,000 -780 Level Montreal Center
10:46AM 45.4869 -73.7462 199° South  Level Estimated
10:46AM 45.5833 -73.5667 199° South 210 242 3,100  Level Montreal Center
10:47AM 45.5333 -73.6000 205° Southwest 180 207 1,900 -840 Descending Montreal Center
10:49AM 45.4871 -73.7002 237° Southwest  Level Estimated
10:49AM 45.4833 -73.6667 237° Southwest 120 138 600  Level Montreal Center
10:52AM 45.4667 -73.7333 65° Northeast  Level FlightAware Approximate
10:59AM 45.4681 -73.7414 65° Northeast  Level Estimated
11:00AM 45.4667 -73.7333 65° Northeast  Level FlightAware Approximate
11:01AM 45.4681 -73.7414 65° Northeast  Level Estimated
11:02AM 45.4667 -73.7333 65° Northeast  Level FlightAware Approximate
11:03AM 45.4681 -73.7414 65° Northeast  Level Estimated
11:04AM 45.4667 -73.7333 65° Northeast  Level FlightAware Approximate
11:05AM 45.4681 -73.7414 65° Northeast  Level Estimated